sensor_id;sensor_type;location;lat;lon;timestamp;noise_LAeq;noise_LA_min;noise_LA_max;noise_LA01;noise_LA95
69608;Laerm;57251;52.248;4.812;2023-02-28T00:00:09;33.26;31.58;34.75;;
69608;Laerm;57251;52.248;4.812;2023-02-28T00:00:23;33.43;31.38;35.73;;
69608;Laerm;57251;52.248;4.812;2023-02-28T00:00:33;32.67;31.20;34.76;;
69608;Laerm;57251;52.248;4.812;2023-02-28T00:00:44;32.87;31.30;34.98;;
69608;Laerm;57251;52.248;4.812;2023-02-28T00:00:54;34.63;31.32;40.77;;
69608;Laerm;57251;52.248;4.812;2023-02-28T00:01:04;32.96;31.34;37.45;;
69608;Laerm;57251;52.248;4.812;2023-02-28T00:01:15;34.89;30.65;43.43;;
69608;Laerm;57251;52.248;4.812;2023-02-28T00:01:25;33.57;31.82;39.11;;
69608;Laerm;57251;52.248;4.812;2023-02-28T00:01:36;33.01;31.41;35.02;;
69608;Laerm;57251;52.248;4.812;2023-02-28T00:01:46;32.39;31.01;34.46;;
69608;Laerm;57251;52.248;4.812;2023-02-28T00:01:57;32.47;30.89;35.82;;
69608;Laerm;57251;52.248;4.812;2023-02-28T00:02:07;31.84;30.63;34.08;;
69608;Laerm;57251;52.248;4.812;2023-02-28T00:02:17;31.76;30.36;33.52;;
69608;Laerm;57251;52.248;4.812;2023-02-28T00:02:28;31.97;30.87;34.80;;
69608;Laerm;57251;52.248;4.812;2023-02-28T00:02:41;31.76;30.47;36.49;;
69608;Laerm;57251;52.248;4.812;2023-02-28T00:02:52;32.43;30.54;34.43;;
69608;Laerm;57251;52.248;4.812;2023-02-28T00:03:02;33.12;31.29;34.94;;
69608;Laerm;57251;52.248;4.812;2023-02-28T00:03:13;33.92;32.07;37.92;;
69608;Laerm;57251;52.248;4.812;2023-02-28T00:03:23;34.51;32.51;36.65;;
69608;Laerm;57251;52.248;4.812;2023-02-28T00:03:33;33.96;32.14;37.64;;
69608;Laerm;57251;52.248;4.812;2023-02-28T00:03:45;34.69;32.07;38.48;;
69608;Laerm;57251;52.248;4.812;2023-02-28T00:03:55;33.96;31.80;36.35;;
69608;Laerm;57251;52.248;4.812;2023-02-28T00:04:06;33.94;32.29;36.89;;
69608;Laerm;57251;52.248;4.812;2023-02-28T00:04:19;34.76;32.18;38.49;;
69608;Laerm;57251;52.248;4.812;2023-02-28T00:04:29;36.59;32.70;43.14;;
69608;Laerm;57251;52.248;4.812;2023-02-28T00:04:39;34.86;32.70;37.31;;
69608;Laerm;57251;52.248;4.812;2023-02-28T00:04:50;35.32;32.24;40.84;;
69608;Laerm;57251;52.248;4.812;2023-02-28T00:05:03;34.31;31.91;39.63;;
69608;Laerm;57251;52.248;4.812;2023-02-28T00:05:18;34.13;31.89;38.69;;
69608;Laerm;57251;52.248;4.812;2023-02-28T00:05:29;35.20;32.30;38.63;;
69608;Laerm;57251;52.248;4.812;2023-02-28T00:05:39;35.04;32.36;38.59;;
69608;Laerm;57251;52.248;4.812;2023-02-28T00:05:49;34.81;31.86;39.00;;
69608;Laerm;57251;52.248;4.812;2023-02-28T00:06:01;35.24;33.20;37.99;;
69608;Laerm;57251;52.248;4.812;2023-02-28T00:06:11;37.37;34.13;41.65;;
69608;Laerm;57251;52.248;4.812;2023-02-28T00:06:21;36.45;33.05;41.44;;
69608;Laerm;57251;52.248;4.812;2023-02-28T00:06:32;35.81;32.38;39.88;;
69608;Laerm;57251;52.248;4.812;2023-02-28T00:06:42;35.10;32.31;40.77;;
69608;Laerm;57251;52.248;4.812;2023-02-28T00:06:52;35.35;32.20;40.46;;
69608;Laerm;57251;52.248;4.812;2023-02-28T00:07:03;34.96;32.67;39.14;;
69608;Laerm;57251;52.248;4.812;2023-02-28T00:07:13;34.20;32.14;37.25;;
69608;Laerm;57251;52.248;4.812;2023-02-28T00:07:23;35.45;32.40;38.82;;
69608;Laerm;57251;52.248;4.812;2023-02-28T00:07:33;35.60;32.62;41.74;;
69608;Laerm;57251;52.248;4.812;2023-02-28T00:07:44;35.37;32.19;41.23;;
69608;Laerm;57251;52.248;4.812;2023-02-28T00:07:55;36.06;33.87;39.79;;
69608;Laerm;57251;52.248;4.812;2023-02-28T00:08:05;34.54;31.80;37.71;;
69608;Laerm;57251;52.248;4.812;2023-02-28T00:08:15;36.14;33.45;39.92;;
69608;Laerm;57251;52.248;4.812;2023-02-28T00:08:26;35.81;32.70;39.17;;
69608;Laerm;57251;52.248;4.812;2023-02-28T00:08:37;33.85;31.58;37.72;;
69608;Laerm;57251;52.248;4.812;2023-02-28T00:08:48;32.60;31.19;34.63;;
69608;Laerm;57251;52.248;4.812;2023-02-28T00:08:58;33.61;30.72;41.17;;
69608;Laerm;57251;52.248;4.812;2023-02-28T00:09:08;33.94;31.57;36.31;;
69608;Laerm;57251;52.248;4.812;2023-02-28T00:09:19;34.00;31.64;37.00;;
69608;Laerm;57251;52.248;4.812;2023-02-28T00:09:32;34.15;32.05;36.92;;
69608;Laerm;57251;52.248;4.812;2023-02-28T00:09:43;33.26;31.28;38.42;;
69608;Laerm;57251;52.248;4.812;2023-02-28T00:09:53;33.06;31.31;35.73;;
69608;Laerm;57251;52.248;4.812;2023-02-28T00:10:06;33.44;31.63;35.94;;
69608;Laerm;57251;52.248;4.812;2023-02-28T00:10:18;33.27;31.53;38.24;;
69608;Laerm;57251;52.248;4.812;2023-02-28T00:10:30;34.54;31.45;42.76;;
69608;Laerm;57251;52.248;4.812;2023-02-28T00:10:41;32.48;30.66;34.43;;
69608;Laerm;57251;52.248;4.812;2023-02-28T00:10:51;32.28;30.84;34.31;;
69608;Laerm;57251;52.248;4.812;2023-02-28T00:11:05;32.22;30.53;33.80;;
69608;Laerm;57251;52.248;4.812;2023-02-28T00:11:16;32.49;30.98;33.80;;
69608;Laerm;57251;52.248;4.812;2023-02-28T00:11:29;33.84;31.44;38.29;;
69608;Laerm;57251;52.248;4.812;2023-02-28T00:11:39;34.21;31.93;39.64;;
69608;Laerm;57251;52.248;4.812;2023-02-28T00:11:50;32.97;31.10;35.91;;
69608;Laerm;57251;52.248;4.812;2023-02-28T00:12:00;32.39;30.59;34.47;;
69608;Laerm;57251;52.248;4.812;2023-02-28T00:12:13;33.04;31.08;35.20;;
69608;Laerm;57251;52.248;4.812;2023-02-28T00:12:24;32.49;30.69;35.81;;
69608;Laerm;57251;52.248;4.812;2023-02-28T00:12:35;32.73;30.80;38.20;;
69608;Laerm;57251;52.248;4.812;2023-02-28T00:12:45;32.18;30.68;34.54;;
69608;Laerm;57251;52.248;4.812;2023-02-28T00:12:59;31.69;30.32;33.02;;
69608;Laerm;57251;52.248;4.812;2023-02-28T00:13:09;32.35;30.60;34.63;;
69608;Laerm;57251;52.248;4.812;2023-02-28T00:13:20;33.18;31.10;36.31;;
69608;Laerm;57251;52.248;4.812;2023-02-28T00:13:31;33.77;31.25;37.70;;
69608;Laerm;57251;52.248;4.812;2023-02-28T00:13:42;33.70;30.50;39.96;;
69608;Laerm;57251;52.248;4.812;2023-02-28T00:13:53;32.59;30.94;34.78;;
69608;Laerm;57251;52.248;4.812;2023-02-28T00:14:03;32.34;30.54;34.96;;
69608;Laerm;57251;52.248;4.812;2023-02-28T00:14:14;32.07;30.32;33.88;;
69608;Laerm;57251;52.248;4.812;2023-02-28T00:14:24;33.13;30.48;39.42;;
69608;Laerm;57251;52.248;4.812;2023-02-28T00:14:34;33.86;31.60;38.51;;
69608;Laerm;57251;52.248;4.812;2023-02-28T00:14:44;34.61;31.55;38.01;;
69608;Laerm;57251;52.248;4.812;2023-02-28T00:14:55;33.61;31.83;35.88;;
69608;Laerm;57251;52.248;4.812;2023-02-28T00:15:06;33.14;31.74;35.04;;
69608;Laerm;57251;52.248;4.812;2023-02-28T00:15:17;34.74;31.15;51.40;;
69608;Laerm;57251;52.248;4.812;2023-02-28T00:15:28;35.09;32.48;40.18;;
69608;Laerm;57251;52.248;4.812;2023-02-28T00:15:38;34.91;32.13;39.91;;
69608;Laerm;57251;52.248;4.812;2023-02-28T00:15:58;34.59;31.60;40.45;;
69608;Laerm;57251;52.248;4.812;2023-02-28T00:16:09;34.57;31.53;44.27;;
69608;Laerm;57251;52.248;4.812;2023-02-28T00:16:20;33.84;31.51;39.38;;
69608;Laerm;57251;52.248;4.812;2023-02-28T00:16:31;33.15;31.28;35.83;;
69608;Laerm;57251;52.248;4.812;2023-02-28T00:16:41;32.23;30.92;33.92;;
69608;Laerm;57251;52.248;4.812;2023-02-28T00:16:52;32.68;30.61;34.40;;
69608;Laerm;57251;52.248;4.812;2023-02-28T00:17:02;32.75;31.20;34.24;;
69608;Laerm;57251;52.248;4.812;2023-02-28T00:17:12;33.71;31.72;36.12;;
69608;Laerm;57251;52.248;4.812;2023-02-28T00:17:23;35.34;32.02;39.99;;
69608;Laerm;57251;52.248;4.812;2023-02-28T00:17:33;34.14;31.72;37.77;;
69608;Laerm;57251;52.248;4.812;2023-02-28T00:17:43;32.39;30.84;34.54;;
69608;Laerm;57251;52.248;4.812;2023-02-28T00:17:54;32.24;30.78;34.09;;
69608;Laerm;57251;52.248;4.812;2023-02-28T00:18:04;32.20;30.80;34.09;;
69608;Laerm;57251;52.248;4.812;2023-02-28T00:18:15;32.49;30.65;34.80;;
69608;Laerm;57251;52.248;4.812;2023-02-28T00:18:25;33.14;31.27;35.35;;
69608;Laerm;57251;52.248;4.812;2023-02-28T00:18:35;32.28;30.72;34.47;;
69608;Laerm;57251;52.248;4.812;2023-02-28T00:18:46;32.56;30.88;34.80;;
69608;Laerm;57251;52.248;4.812;2023-02-28T00:18:57;32.31;30.79;34.27;;
69608;Laerm;57251;52.248;4.812;2023-02-28T00:19:07;32.62;31.19;37.13;;
69608;Laerm;57251;52.248;4.812;2023-02-28T00:19:18;33.18;31.22;35.32;;
69608;Laerm;57251;52.248;4.812;2023-02-28T00:19:28;33.84;31.98;36.21;;
69608;Laerm;57251;52.248;4.812;2023-02-28T00:19:38;33.07;31.45;34.97;;
69608;Laerm;57251;52.248;4.812;2023-02-28T00:19:49;33.08;31.14;36.46;;
69608;Laerm;57251;52.248;4.812;2023-02-28T00:19:59;32.60;31.04;35.01;;
69608;Laerm;57251;52.248;4.812;2023-02-28T00:20:12;33.12;31.09;35.76;;
69608;Laerm;57251;52.248;4.812;2023-02-28T00:20:23;32.68;31.09;34.96;;
69608;Laerm;57251;52.248;4.812;2023-02-28T00:20:33;33.93;31.68;40.34;;
69608;Laerm;57251;52.248;4.812;2023-02-28T00:20:44;33.67;31.39;39.04;;
69608;Laerm;57251;52.248;4.812;2023-02-28T00:20:55;34.12;31.60;41.71;;
69608;Laerm;57251;52.248;4.812;2023-02-28T00:21:05;33.29;31.27;36.16;;
69608;Laerm;57251;52.248;4.812;2023-02-28T00:21:16;33.53;31.71;35.36;;
69608;Laerm;57251;52.248;4.812;2023-02-28T00:21:26;32.90;31.28;34.45;;
69608;Laerm;57251;52.248;4.812;2023-02-28T00:21:37;33.57;32.00;35.46;;
69608;Laerm;57251;52.248;4.812;2023-02-28T00:21:50;33.32;31.68;36.01;;
69608;Laerm;57251;52.248;4.812;2023-02-28T00:22:01;34.04;31.60;38.34;;
69608;Laerm;57251;52.248;4.812;2023-02-28T00:22:11;33.35;31.35;38.70;;
69608;Laerm;57251;52.248;4.812;2023-02-28T00:22:22;33.72;31.33;37.82;;
69608;Laerm;57251;52.248;4.812;2023-02-28T00:22:32;33.42;31.45;37.34;;
69608;Laerm;57251;52.248;4.812;2023-02-28T00:22:44;33.72;31.41;36.83;;
69608;Laerm;57251;52.248;4.812;2023-02-28T00:22:54;32.77;31.04;34.66;;
69608;Laerm;57251;52.248;4.812;2023-02-28T00:23:05;32.89;31.26;34.74;;
69608;Laerm;57251;52.248;4.812;2023-02-28T00:23:18;33.19;31.31;37.95;;
69608;Laerm;57251;52.248;4.812;2023-02-28T00:23:28;33.86;31.76;40.59;;
69608;Laerm;57251;52.248;4.812;2023-02-28T00:23:38;34.16;32.34;37.42;;
69608;Laerm;57251;52.248;4.812;2023-02-28T00:23:49;33.46;31.75;36.77;;
69608;Laerm;57251;52.248;4.812;2023-02-28T00:23:59;33.72;31.13;36.47;;
69608;Laerm;57251;52.248;4.812;2023-02-28T00:24:09;34.59;31.29;37.98;;
69608;Laerm;57251;52.248;4.812;2023-02-28T00:24:20;33.05;31.35;36.34;;
69608;Laerm;57251;52.248;4.812;2023-02-28T00:24:30;33.11;31.65;34.65;;
69608;Laerm;57251;52.248;4.812;2023-02-28T00:24:40;33.80;31.77;39.10;;
69608;Laerm;57251;52.248;4.812;2023-02-28T00:24:50;34.25;31.95;40.35;;
69608;Laerm;57251;52.248;4.812;2023-02-28T00:25:01;33.86;31.80;36.25;;
69608;Laerm;57251;52.248;4.812;2023-02-28T00:25:12;32.83;30.98;35.02;;
69608;Laerm;57251;52.248;4.812;2023-02-28T00:25:23;32.57;31.17;34.82;;
69608;Laerm;57251;52.248;4.812;2023-02-28T00:25:34;33.73;31.53;37.56;;
69608;Laerm;57251;52.248;4.812;2023-02-28T00:25:44;33.14;31.48;36.04;;
69608;Laerm;57251;52.248;4.812;2023-02-28T00:25:55;33.08;31.06;34.92;;
69608;Laerm;57251;52.248;4.812;2023-02-28T00:26:05;33.08;31.29;34.69;;
69608;Laerm;57251;52.248;4.812;2023-02-28T00:26:15;33.01;30.97;36.01;;
69608;Laerm;57251;52.248;4.812;2023-02-28T00:26:26;32.49;30.64;35.07;;
69608;Laerm;57251;52.248;4.812;2023-02-28T00:26:39;32.48;30.93;33.99;;
69608;Laerm;57251;52.248;4.812;2023-02-28T00:26:49;32.88;30.45;35.06;;
69608;Laerm;57251;52.248;4.812;2023-02-28T00:26:59;32.29;30.73;35.42;;
69608;Laerm;57251;52.248;4.812;2023-02-28T00:27:10;32.10;30.82;33.95;;
69608;Laerm;57251;52.248;4.812;2023-02-28T00:27:20;32.21;30.57;34.83;;
69608;Laerm;57251;52.248;4.812;2023-02-28T00:27:30;31.72;30.56;33.71;;
69608;Laerm;57251;52.248;4.812;2023-02-28T00:27:41;31.66;30.11;33.37;;
69608;Laerm;57251;52.248;4.812;2023-02-28T00:27:51;32.99;31.01;37.18;;
69608;Laerm;57251;52.248;4.812;2023-02-28T00:28:02;32.44;30.46;37.01;;
69608;Laerm;57251;52.248;4.812;2023-02-28T00:28:12;31.98;30.24;34.07;;
69608;Laerm;57251;52.248;4.812;2023-02-28T00:28:23;32.64;30.94;39.50;;
69608;Laerm;57251;52.248;4.812;2023-02-28T00:28:33;32.60;30.76;34.69;;
69608;Laerm;57251;52.248;4.812;2023-02-28T00:28:43;32.24;30.90;34.83;;
69608;Laerm;57251;52.248;4.812;2023-02-28T00:28:54;32.68;30.41;35.42;;
69608;Laerm;57251;52.248;4.812;2023-02-28T00:29:04;32.99;31.13;35.44;;
69608;Laerm;57251;52.248;4.812;2023-02-28T00:29:14;33.22;31.14;36.26;;
69608;Laerm;57251;52.248;4.812;2023-02-28T00:29:25;32.63;30.96;35.21;;
69608;Laerm;57251;52.248;4.812;2023-02-28T00:29:35;32.82;30.75;36.91;;
69608;Laerm;57251;52.248;4.812;2023-02-28T00:29:46;32.07;30.65;34.25;;
69608;Laerm;57251;52.248;4.812;2023-02-28T00:29:56;33.60;30.66;38.62;;
69608;Laerm;57251;52.248;4.812;2023-02-28T00:30:08;33.01;31.07;35.18;;
69608;Laerm;57251;52.248;4.812;2023-02-28T00:30:20;32.21;30.71;34.03;;
69608;Laerm;57251;52.248;4.812;2023-02-28T00:30:30;32.08;30.21;35.30;;
69608;Laerm;57251;52.248;4.812;2023-02-28T00:30:41;31.71;30.39;33.19;;
69608;Laerm;57251;52.248;4.812;2023-02-28T00:30:51;32.47;30.93;34.11;;
69608;Laerm;57251;52.248;4.812;2023-02-28T00:31:02;32.60;31.00;34.20;;
69608;Laerm;57251;52.248;4.812;2023-02-28T00:31:12;32.49;30.92;34.59;;
69608;Laerm;57251;52.248;4.812;2023-02-28T00:31:23;32.50;31.22;34.51;;
69608;Laerm;57251;52.248;4.812;2023-02-28T00:31:33;32.82;30.78;34.42;;
69608;Laerm;57251;52.248;4.812;2023-02-28T00:31:43;32.71;31.17;34.48;;
69608;Laerm;57251;52.248;4.812;2023-02-28T00:31:54;32.41;31.22;34.00;;
69608;Laerm;57251;52.248;4.812;2023-02-28T00:32:04;33.62;31.73;36.88;;
69608;Laerm;57251;52.248;4.812;2023-02-28T00:32:15;33.16;31.03;36.31;;
69608;Laerm;57251;52.248;4.812;2023-02-28T00:32:25;32.92;31.16;35.33;;
69608;Laerm;57251;52.248;4.812;2023-02-28T00:32:35;32.71;31.23;34.44;;
69608;Laerm;57251;52.248;4.812;2023-02-28T00:32:46;32.94;30.87;37.36;;
69608;Laerm;57251;52.248;4.812;2023-02-28T00:32:56;32.78;30.46;36.17;;
69608;Laerm;57251;52.248;4.812;2023-02-28T00:33:06;32.81;30.76;34.73;;
69608;Laerm;57251;52.248;4.812;2023-02-28T00:33:17;33.72;31.02;37.87;;
69608;Laerm;57251;52.248;4.812;2023-02-28T00:33:27;34.54;31.78;39.07;;
69608;Laerm;57251;52.248;4.812;2023-02-28T00:33:38;33.92;31.41;38.82;;
69608;Laerm;57251;52.248;4.812;2023-02-28T00:33:48;32.98;31.24;35.30;;
69608;Laerm;57251;52.248;4.812;2023-02-28T00:34:00;31.75;30.44;35.32;;
69608;Laerm;57251;52.248;4.812;2023-02-28T00:34:11;31.77;30.12;33.64;;
69608;Laerm;57251;52.248;4.812;2023-02-28T00:34:21;32.38;30.87;33.68;;
69608;Laerm;57251;52.248;4.812;2023-02-28T00:34:31;32.79;31.05;34.72;;
69608;Laerm;57251;52.248;4.812;2023-02-28T00:34:47;32.35;30.63;34.07;;
69608;Laerm;57251;52.248;4.812;2023-02-28T00:34:58;33.09;30.89;35.21;;
69608;Laerm;57251;52.248;4.812;2023-02-28T00:35:09;33.18;31.26;35.38;;
69608;Laerm;57251;52.248;4.812;2023-02-28T00:35:19;32.57;30.65;35.23;;
69608;Laerm;57251;52.248;4.812;2023-02-28T00:35:30;32.29;30.85;34.18;;
69608;Laerm;57251;52.248;4.812;2023-02-28T00:35:42;32.11;30.39;33.50;;
69608;Laerm;57251;52.248;4.812;2023-02-28T00:36:00;31.50;29.98;33.04;;
69608;Laerm;57251;52.248;4.812;2023-02-28T00:36:11;31.66;29.82;37.26;;
69608;Laerm;57251;52.248;4.812;2023-02-28T00:36:21;31.78;30.23;33.63;;
69608;Laerm;57251;52.248;4.812;2023-02-28T00:36:31;32.06;30.31;35.23;;
69608;Laerm;57251;52.248;4.812;2023-02-28T00:36:42;31.55;29.94;33.41;;
69608;Laerm;57251;52.248;4.812;2023-02-28T00:36:55;31.89;30.45;36.06;;
69608;Laerm;57251;52.248;4.812;2023-02-28T00:37:06;32.01;30.47;33.87;;
69608;Laerm;57251;52.248;4.812;2023-02-28T00:37:16;31.87;30.50;33.45;;
69608;Laerm;57251;52.248;4.812;2023-02-28T00:37:27;31.62;30.41;33.76;;
69608;Laerm;57251;52.248;4.812;2023-02-28T00:37:37;31.99;30.61;33.78;;
69608;Laerm;57251;52.248;4.812;2023-02-28T00:37:48;31.64;30.51;33.41;;
69608;Laerm;57251;52.248;4.812;2023-02-28T00:37:59;31.65;30.53;33.11;;
69608;Laerm;57251;52.248;4.812;2023-02-28T00:38:09;31.70;29.73;34.39;;
69608;Laerm;57251;52.248;4.812;2023-02-28T00:38:19;32.07;30.44;34.17;;
69608;Laerm;57251;52.248;4.812;2023-02-28T00:38:29;32.90;31.02;34.66;;
69608;Laerm;57251;52.248;4.812;2023-02-28T00:38:40;33.67;31.00;36.10;;
69608;Laerm;57251;52.248;4.812;2023-02-28T00:38:50;33.29;31.12;35.62;;
69608;Laerm;57251;52.248;4.812;2023-02-28T00:39:01;33.53;31.93;35.72;;
69608;Laerm;57251;52.248;4.812;2023-02-28T00:39:11;34.10;31.05;38.37;;
69608;Laerm;57251;52.248;4.812;2023-02-28T00:39:21;33.37;31.49;38.32;;
69608;Laerm;57251;52.248;4.812;2023-02-28T00:39:35;32.30;30.54;34.19;;
69608;Laerm;57251;52.248;4.812;2023-02-28T00:39:45;33.73;30.51;37.95;;
69608;Laerm;57251;52.248;4.812;2023-02-28T00:39:56;33.57;30.97;36.89;;
69608;Laerm;57251;52.248;4.812;2023-02-28T00:40:06;32.76;30.49;35.59;;
69608;Laerm;57251;52.248;4.812;2023-02-28T00:40:17;32.70;30.55;35.16;;
69608;Laerm;57251;52.248;4.812;2023-02-28T00:40:28;32.36;30.13;34.88;;
69608;Laerm;57251;52.248;4.812;2023-02-28T00:40:38;33.34;31.01;37.03;;
69608;Laerm;57251;52.248;4.812;2023-02-28T00:40:49;33.12;30.80;36.69;;
69608;Laerm;57251;52.248;4.812;2023-02-28T00:40:59;33.20;31.21;35.54;;
69608;Laerm;57251;52.248;4.812;2023-02-28T00:41:14;32.24;30.63;34.03;;
69608;Laerm;57251;52.248;4.812;2023-02-28T00:41:24;33.57;31.14;36.20;;
69608;Laerm;57251;52.248;4.812;2023-02-28T00:41:35;34.60;31.46;40.20;;
69608;Laerm;57251;52.248;4.812;2023-02-28T00:41:45;34.84;31.56;42.65;;
69608;Laerm;57251;52.248;4.812;2023-02-28T00:41:55;34.02;30.95;40.08;;
69608;Laerm;57251;52.248;4.812;2023-02-28T00:42:06;33.73;30.90;36.51;;
69608;Laerm;57251;52.248;4.812;2023-02-28T00:42:17;35.90;31.97;44.14;;
69608;Laerm;57251;52.248;4.812;2023-02-28T00:42:27;34.77;32.23;39.58;;
69608;Laerm;57251;52.248;4.812;2023-02-28T00:42:38;34.14;31.41;36.96;;
69608;Laerm;57251;52.248;4.812;2023-02-28T00:42:48;32.89;31.17;35.75;;
69608;Laerm;57251;52.248;4.812;2023-02-28T00:42:58;33.46;31.22;35.79;;
69608;Laerm;57251;52.248;4.812;2023-02-28T00:43:09;33.98;30.88;37.98;;
69608;Laerm;57251;52.248;4.812;2023-02-28T00:43:19;34.05;31.63;36.90;;
69608;Laerm;57251;52.248;4.812;2023-02-28T00:43:30;33.12;30.79;35.50;;
69608;Laerm;57251;52.248;4.812;2023-02-28T00:43:40;32.48;30.53;35.12;;
69608;Laerm;57251;52.248;4.812;2023-02-28T00:43:50;32.84;31.26;34.81;;
69608;Laerm;57251;52.248;4.812;2023-02-28T00:44:01;32.52;30.75;35.12;;
69608;Laerm;57251;52.248;4.812;2023-02-28T00:44:11;32.49;30.70;36.01;;
69608;Laerm;57251;52.248;4.812;2023-02-28T00:44:21;32.32;30.70;34.37;;
69608;Laerm;57251;52.248;4.812;2023-02-28T00:44:32;32.52;31.08;35.08;;
69608;Laerm;57251;52.248;4.812;2023-02-28T00:44:42;33.46;30.99;38.28;;
69608;Laerm;57251;52.248;4.812;2023-02-28T00:44:52;33.26;31.46;35.22;;
69608;Laerm;57251;52.248;4.812;2023-02-28T00:45:03;33.76;31.98;35.66;;
69608;Laerm;57251;52.248;4.812;2023-02-28T00:45:14;33.65;31.81;36.42;;
69608;Laerm;57251;52.248;4.812;2023-02-28T00:45:25;34.77;32.43;37.75;;
69608;Laerm;57251;52.248;4.812;2023-02-28T00:45:35;34.47;31.31;38.99;;
69608;Laerm;57251;52.248;4.812;2023-02-28T00:45:45;32.75;31.07;34.74;;
69608;Laerm;57251;52.248;4.812;2023-02-28T00:45:55;32.38;31.11;33.82;;
69608;Laerm;57251;52.248;4.812;2023-02-28T00:46:06;32.47;30.90;34.48;;
69608;Laerm;57251;52.248;4.812;2023-02-28T00:46:17;33.55;31.54;37.05;;
69608;Laerm;57251;52.248;4.812;2023-02-28T00:46:27;34.11;31.40;37.46;;
69608;Laerm;57251;52.248;4.812;2023-02-28T00:46:37;33.01;30.87;37.70;;
69608;Laerm;57251;52.248;4.812;2023-02-28T00:46:48;32.30;30.92;33.87;;
69608;Laerm;57251;52.248;4.812;2023-02-28T00:46:58;32.41;30.74;34.71;;
69608;Laerm;57251;52.248;4.812;2023-02-28T00:47:08;32.58;30.83;34.75;;
69608;Laerm;57251;52.248;4.812;2023-02-28T00:47:19;32.55;30.86;35.03;;
69608;Laerm;57251;52.248;4.812;2023-02-28T00:47:29;32.54;30.87;35.25;;
69608;Laerm;57251;52.248;4.812;2023-02-28T00:47:39;32.44;30.83;33.70;;
69608;Laerm;57251;52.248;4.812;2023-02-28T00:47:49;33.84;31.37;37.31;;
69608;Laerm;57251;52.248;4.812;2023-02-28T00:48:00;33.18;31.54;35.40;;
69608;Laerm;57251;52.248;4.812;2023-02-28T00:48:10;33.26;31.28;35.72;;
69608;Laerm;57251;52.248;4.812;2023-02-28T00:48:20;32.42;30.85;34.68;;
69608;Laerm;57251;52.248;4.812;2023-02-28T00:48:31;31.80;30.17;33.65;;
69608;Laerm;57251;52.248;4.812;2023-02-28T00:48:41;32.66;30.68;35.25;;
69608;Laerm;57251;52.248;4.812;2023-02-28T00:48:51;34.11;31.38;40.67;;
69608;Laerm;57251;52.248;4.812;2023-02-28T00:49:02;33.15;30.87;35.99;;
69608;Laerm;57251;52.248;4.812;2023-02-28T00:49:12;33.34;31.61;35.49;;
69608;Laerm;57251;52.248;4.812;2023-02-28T00:49:23;34.05;31.50;37.38;;
69608;Laerm;57251;52.248;4.812;2023-02-28T00:49:33;32.64;31.10;35.23;;
69608;Laerm;57251;52.248;4.812;2023-02-28T00:49:43;32.87;30.28;36.15;;
69608;Laerm;57251;52.248;4.812;2023-02-28T00:49:53;33.57;31.14;37.26;;
69608;Laerm;57251;52.248;4.812;2023-02-28T00:50:04;32.47;30.40;38.36;;
69608;Laerm;57251;52.248;4.812;2023-02-28T00:50:18;31.78;30.52;33.73;;
69608;Laerm;57251;52.248;4.812;2023-02-28T00:50:30;32.33;30.67;34.37;;
69608;Laerm;57251;52.248;4.812;2023-02-28T00:50:40;32.38;30.62;36.23;;
69608;Laerm;57251;52.248;4.812;2023-02-28T00:50:50;31.86;30.35;33.49;;
69608;Laerm;57251;52.248;4.812;2023-02-28T00:51:01;31.72;30.41;34.05;;
69608;Laerm;57251;52.248;4.812;2023-02-28T00:51:11;31.98;30.48;34.61;;
69608;Laerm;57251;52.248;4.812;2023-02-28T00:51:21;32.16;30.70;33.74;;
69608;Laerm;57251;52.248;4.812;2023-02-28T00:51:32;31.66;30.22;33.52;;
69608;Laerm;57251;52.248;4.812;2023-02-28T00:51:42;31.05;29.71;32.54;;
69608;Laerm;57251;52.248;4.812;2023-02-28T00:51:53;31.45;30.25;33.06;;
69608;Laerm;57251;52.248;4.812;2023-02-28T00:52:04;31.16;29.94;32.94;;
69608;Laerm;57251;52.248;4.812;2023-02-28T00:52:14;31.31;29.88;32.93;;
69608;Laerm;57251;52.248;4.812;2023-02-28T00:52:24;31.34;29.79;32.56;;
69608;Laerm;57251;52.248;4.812;2023-02-28T00:52:35;31.20;29.91;32.56;;
69608;Laerm;57251;52.248;4.812;2023-02-28T00:52:46;33.03;30.49;37.89;;
69608;Laerm;57251;52.248;4.812;2023-02-28T00:52:56;32.46;30.69;35.41;;
69608;Laerm;57251;52.248;4.812;2023-02-28T00:53:06;32.18;30.51;34.56;;
69608;Laerm;57251;52.248;4.812;2023-02-28T00:53:17;32.46;30.82;34.40;;
69608;Laerm;57251;52.248;4.812;2023-02-28T00:53:27;32.72;30.63;38.59;;
69608;Laerm;57251;52.248;4.812;2023-02-28T00:53:37;31.75;30.24;33.77;;
69608;Laerm;57251;52.248;4.812;2023-02-28T00:53:48;31.26;30.12;33.92;;
69608;Laerm;57251;52.248;4.812;2023-02-28T00:53:58;31.29;29.80;32.79;;
69608;Laerm;57251;52.248;4.812;2023-02-28T00:54:08;31.56;30.31;33.91;;
69608;Laerm;57251;52.248;4.812;2023-02-28T00:54:19;32.03;30.62;33.81;;
69608;Laerm;57251;52.248;4.812;2023-02-28T00:54:29;31.69;30.51;33.41;;
69608;Laerm;57251;52.248;4.812;2023-02-28T00:54:39;32.63;30.80;35.82;;
69608;Laerm;57251;52.248;4.812;2023-02-28T00:54:50;32.24;30.68;34.10;;
69608;Laerm;57251;52.248;4.812;2023-02-28T00:55:00;32.22;30.78;34.56;;
69608;Laerm;57251;52.248;4.812;2023-02-28T00:55:10;32.60;31.24;34.26;;
69608;Laerm;57251;52.248;4.812;2023-02-28T00:55:20;33.65;31.92;35.85;;
69608;Laerm;57251;52.248;4.812;2023-02-28T00:55:31;33.87;31.98;36.62;;
69608;Laerm;57251;52.248;4.812;2023-02-28T00:55:41;34.53;30.99;38.50;;
69608;Laerm;57251;52.248;4.812;2023-02-28T00:55:51;33.01;31.18;34.83;;
69608;Laerm;57251;52.248;4.812;2023-02-28T00:56:02;33.62;31.85;35.33;;
69608;Laerm;57251;52.248;4.812;2023-02-28T00:56:12;34.52;31.14;41.06;;
69608;Laerm;57251;52.248;4.812;2023-02-28T00:56:23;35.47;32.98;39.87;;
69608;Laerm;57251;52.248;4.812;2023-02-28T00:56:33;35.72;32.59;40.80;;
69608;Laerm;57251;52.248;4.812;2023-02-28T00:56:44;33.35;30.85;35.96;;
69608;Laerm;57251;52.248;4.812;2023-02-28T00:56:55;33.38;31.84;36.35;;
69608;Laerm;57251;52.248;4.812;2023-02-28T00:57:06;36.13;31.82;45.29;;
69608;Laerm;57251;52.248;4.812;2023-02-28T00:57:16;34.29;31.67;40.93;;
69608;Laerm;57251;52.248;4.812;2023-02-28T00:57:26;35.24;32.31;39.95;;
69608;Laerm;57251;52.248;4.812;2023-02-28T00:57:37;35.41;33.14;37.96;;
69608;Laerm;57251;52.248;4.812;2023-02-28T00:57:47;34.68;32.16;38.20;;
69608;Laerm;57251;52.248;4.812;2023-02-28T00:57:57;35.16;32.30;38.61;;
69608;Laerm;57251;52.248;4.812;2023-02-28T00:58:07;33.82;31.38;37.92;;
69608;Laerm;57251;52.248;4.812;2023-02-28T00:58:18;34.22;32.03;36.81;;
69608;Laerm;57251;52.248;4.812;2023-02-28T00:58:28;35.52;32.77;39.11;;
69608;Laerm;57251;52.248;4.812;2023-02-28T00:58:39;35.19;32.45;38.72;;
69608;Laerm;57251;52.248;4.812;2023-02-28T00:58:49;34.26;32.29;37.39;;
69608;Laerm;57251;52.248;4.812;2023-02-28T00:58:59;35.01;32.03;39.67;;
69608;Laerm;57251;52.248;4.812;2023-02-28T00:59:09;34.31;31.54;40.55;;
69608;Laerm;57251;52.248;4.812;2023-02-28T00:59:21;33.89;31.29;36.64;;
69608;Laerm;57251;52.248;4.812;2023-02-28T00:59:31;34.16;31.50;38.59;;
69608;Laerm;57251;52.248;4.812;2023-02-28T00:59:41;35.69;33.09;39.66;;
69608;Laerm;57251;52.248;4.812;2023-02-28T00:59:52;34.08;31.33;39.28;;
69608;Laerm;57251;52.248;4.812;2023-02-28T01:00:04;32.65;30.99;36.30;;